Time;durP1;ratioP1;P1;durP2;ratioP2;P2;SDS_P1;SDS_P2;PMS_P1;PMS_P2;Temp;Humidity;BMP_temperature;BMP_pressure;BME280_temperature;BME280_humidity;BME280_pressure;Samples;Min_cycle;Max_cycle;Signal;HPM_P1;HPM_P2
2022/04/07 00:00:34;;;;;;;28.00;16.70;;;;;;;6.31;100.00;97490.56;5132798;27;20047;-66
2022/04/07 00:03:00;;;;;;;30.65;17.33;;;;;;;6.31;100.00;97484.34;5132913;27;20055;-66
2022/04/07 00:05:27;;;;;;;27.75;17.27;;;;;;;6.36;100.00;97481.25;5132679;28;20502;-65
2022/04/07 00:07:53;;;;;;;25.88;15.73;;;;;;;6.35;100.00;97479.69;5132662;28;20043;-66
2022/04/07 00:10:20;;;;;;;26.95;16.02;;;;;;;6.44;100.00;97477.44;5132519;28;20141;-65
2022/04/07 00:12:47;;;;;;;28.48;17.23;;;;;;;6.42;100.00;97473.53;5132717;27;20043;-66
2022/04/07 00:15:13;;;;;;;30.33;16.40;;;;;;;6.41;100.00;97489.06;5132348;28;20047;-65
2022/04/07 00:17:40;;;;;;;28.92;16.92;;;;;;;6.44;100.00;97476.66;5132714;27;20043;-66
2022/04/07 00:20:07;;;;;;;22.48;15.15;;;;;;;6.45;100.00;97473.53;5132091;28;20047;-66
2022/04/07 00:22:34;;;;;;;26.27;15.85;;;;;;;6.44;100.00;97476.66;5132503;27;20047;-66
2022/04/07 00:25:00;;;;;;;24.13;14.90;;;;;;;6.45;100.00;97468.09;5132388;28;20046;-65
2022/04/07 00:27:27;;;;;;;26.45;15.52;;;;;;;6.45;100.00;97472.75;5131922;27;20096;-66
2022/04/07 00:29:53;;;;;;;31.13;16.88;;;;;;;6.47;100.00;97478.63;5132213;28;20421;-66
2022/04/07 00:32:19;;;;;;;24.67;15.70;;;;;;;6.44;100.00;97474.72;5132296;28;20049;-65
2022/04/07 00:34:48;;;;;;;27.48;15.98;;;;;;;6.51;100.00;97472.03;5131837;27;20055;-66
2022/04/07 00:37:14;;;;;;;30.00;16.90;;;;;;;6.54;100.00;97465.06;5131969;28;20078;-66
2022/04/07 00:39:41;;;;;;;26.45;15.93;;;;;;;6.51;100.00;97463.09;5131970;28;20403;-66
2022/04/07 00:42:08;;;;;;;28.45;17.88;;;;;;;6.55;100.00;97463.88;5131746;28;20054;-66
2022/04/07 00:44:34;;;;;;;27.23;16.92;;;;;;;6.54;100.00;97454.94;5132219;27;20160;-66
2022/04/07 00:47:00;;;;;;;27.48;16.20;;;;;;;6.56;100.00;97451.81;5131411;27;20050;-66
2022/04/07 00:49:26;;;;;;;29.50;16.30;;;;;;;6.56;100.00;97458.06;5131791;28;20042;-66
2022/04/07 00:51:54;;;;;;;33.92;18.95;;;;;;;6.60;100.00;97452.66;5131803;28;20055;-66
2022/04/07 00:54:20;;;;;;;26.85;17.65;;;;;;;6.59;100.00;97453.78;5132000;27;20054;-66
2022/04/07 00:56:47;;;;;;;28.23;17.67;;;;;;;6.66;100.00;97448.38;5131684;28;20065;-67
2022/04/07 00:59:16;;;;;;;28.67;16.73;;;;;;;6.65;100.00;97451.50;5131525;27;20055;-66
2022/04/07 01:01:43;;;;;;;30.25;16.92;;;;;;;6.68;100.00;97448.78;5131443;27;20505;-66
2022/04/07 01:04:09;;;;;;;31.27;17.52;;;;;;;6.61;100.00;97451.47;5131411;27;20486;-66
2022/04/07 01:06:36;;;;;;;29.65;19.67;;;;;;;6.68;100.00;97453.47;5131305;27;20414;-67
2022/04/07 01:09:02;;;;;;;26.63;18.27;;;;;;;6.74;100.00;97449.22;5131169;27;20055;-66
2022/04/07 01:11:31;;;;;;;33.75;18.52;;;;;;;6.77;100.00;97449.25;5131591;27;20471;-66
2022/04/07 01:13:58;;;;;;;35.67;21.25;;;;;;;6.81;100.00;97447.31;5131628;28;20047;-66
2022/04/07 01:16:27;;;;;;;30.10;18.15;;;;;;;6.79;100.00;97449.63;5131292;28;20043;-66
2022/04/07 01:18:56;;;;;;;34.80;21.27;;;;;;;6.79;100.00;97460.53;5131350;28;20051;-66
2022/04/07 01:21:24;;;;;;;41.08;22.17;;;;;;;6.84;100.00;97438.38;5131599;27;20051;-66
2022/04/07 01:24:00;;;;;;;30.77;17.88;;;;;;;6.88;100.00;97441.13;5131068;27;20050;-66
2022/04/07 01:26:27;;;;;;;32.65;18.25;;;;;;;6.88;100.00;97443.84;5131609;27;20051;-67
2022/04/07 01:28:54;;;;;;;36.03;21.20;;;;;;;6.86;100.00;97443.44;5131617;28;20520;-65
2022/04/07 01:31:20;;;;;;;30.85;19.20;;;;;;;6.95;100.00;97440.38;5131207;27;20043;-66
2022/04/07 01:33:46;;;;;;;31.85;18.92;;;;;;;6.93;100.00;97437.22;5131247;27;20051;-66
2022/04/07 01:36:14;;;;;;;29.00;18.38;;;;;;;6.95;100.00;97430.25;5131027;28;20047;-66
2022/04/07 01:38:40;;;;;;;26.40;17.67;;;;;;;6.95;100.00;97437.66;5131331;27;20047;-66
2022/04/07 01:41:07;;;;;;;28.02;18.58;;;;;;;6.95;100.00;97438.41;5130899;28;20061;-66
2022/04/07 01:43:35;;;;;;;27.08;18.60;;;;;;;6.99;100.00;97446.59;5130983;27;20058;-66
2022/04/07 01:46:01;;;;;;;33.70;20.42;;;;;;;7.02;100.00;97443.91;5130547;28;20054;-66
2022/04/07 01:48:29;;;;;;;28.48;19.38;;;;;;;7.06;100.00;97452.88;5130825;28;20054;-66
2022/04/07 01:50:56;;;;;;;29.95;20.70;;;;;;;7.07;100.00;97450.94;5130853;27;20058;-66
2022/04/07 01:53:24;;;;;;;30.58;19.08;;;;;;;7.11;100.00;97457.19;5131119;27;20054;-65
2022/04/07 01:55:51;;;;;;;35.30;23.10;;;;;;;7.04;100.00;97466.09;5131051;27;20533;-64
2022/04/07 01:58:18;;;;;;;36.65;22.27;;;;;;;7.06;100.00;97458.34;5130914;28;20055;-66
2022/04/07 02:00:46;;;;;;;48.17;25.30;;;;;;;7.10;100.00;97452.09;5131062;27;20047;-66
2022/04/07 02:03:12;;;;;;;37.10;21.90;;;;;;;7.12;100.00;97447.06;5130837;28;20057;-66
2022/04/07 02:05:38;;;;;;;39.65;23.67;;;;;;;7.17;100.00;97444.75;5130850;27;20047;-66
2022/04/07 02:08:05;;;;;;;38.00;22.15;;;;;;;7.07;100.00;97448.22;5130615;28;20528;-66
2022/04/07 02:10:32;;;;;;;38.88;24.73;;;;;;;7.11;100.00;97429.94;5130369;27;20069;-66
2022/04/07 02:12:58;;;;;;;45.88;25.95;;;;;;;7.11;100.00;97438.09;5130531;28;20051;-66
2022/04/07 02:15:26;;;;;;;35.08;24.33;;;;;;;7.10;100.00;97431.09;5130827;27;20054;-66
2022/04/07 02:17:53;;;;;;;41.92;23.67;;;;;;;7.14;100.00;97434.63;5130500;27;20058;-66
2022/04/07 02:20:19;;;;;;;41.28;22.35;;;;;;;7.10;100.00;97430.28;5134199;28;20057;-66
2022/04/07 02:22:45;;;;;;;36.10;22.17;;;;;;;7.08;100.00;97436.16;5134079;27;20494;-66
2022/04/07 02:25:11;;;;;;;32.15;19.70;;;;;;;7.04;100.00;97425.22;5134211;28;20063;-66
2022/04/07 02:27:41;;;;;;;31.13;17.77;;;;;;;7.05;100.00;97413.16;5134125;28;20066;-66
2022/04/07 02:30:10;;;;;;;27.17;17.50;;;;;;;7.12;100.00;97425.25;5134044;27;20051;-66
2022/04/07 02:32:36;;;;;;;25.45;15.43;;;;;;;7.02;100.00;97419.38;5134282;27;20520;-67
2022/04/07 02:35:04;;;;;;;25.75;16.45;;;;;;;7.11;100.00;97415.53;5134196;27;20398;-67
2022/04/07 02:37:31;;;;;;;24.27;16.52;;;;;;;7.08;100.00;97423.28;5134329;27;20519;-66
2022/04/07 02:39:57;;;;;;;22.35;15.00;;;;;;;7.12;100.00;97420.59;5134304;27;20604;-67
2022/04/07 02:42:24;;;;;;;29.23;16.92;;;;;;;7.12;100.00;97419.81;5134265;27;20047;-66
2022/04/07 02:44:50;;;;;;;33.08;17.85;;;;;;;7.16;100.00;97415.91;5133974;28;20047;-66
2022/04/07 02:47:17;;;;;;;25.90;18.63;;;;;;;7.12;100.00;97404.22;5133496;27;20051;-66
2022/04/07 02:49:43;;;;;;;27.10;15.82;;;;;;;7.14;100.00;97403.88;5133681;27;20051;-66
2022/04/07 02:52:11;;;;;;;22.67;16.08;;;;;;;7.11;100.00;97399.19;5133846;27;20062;-66
2022/04/07 02:54:38;;;;;;;22.15;14.90;;;;;;;7.12;100.00;97393.31;5133719;27;20051;-66
2022/04/07 02:57:05;;;;;;;23.38;15.95;;;;;;;7.21;100.00;97388.31;5133532;28;20050;-66
2022/04/07 02:59:32;;;;;;;23.83;16.38;;;;;;;7.22;100.00;97397.25;5133710;28;20409;-66
2022/04/07 03:01:58;;;;;;;24.17;16.73;;;;;;;7.26;100.00;97401.56;5133402;28;20051;-67
2022/04/07 03:04:25;;;;;;;23.67;15.82;;;;;;;7.24;100.00;97401.16;5133326;28;20051;-67
2022/04/07 03:06:51;;;;;;;24.13;16.00;;;;;;;7.29;100.00;97408.94;5133503;28;20103;-66
2022/04/07 03:09:19;;;;;;;24.17;16.55;;;;;;;7.26;100.00;97406.22;5133196;27;20047;-67
2022/04/07 03:11:46;;;;;;;22.60;15.63;;;;;;;7.27;100.00;97405.06;5133524;28;20077;-66
2022/04/07 03:14:12;;;;;;;21.38;13.75;;;;;;;7.26;100.00;97407.03;5133542;27;20055;-67
2022/04/07 03:16:39;;;;;;;26.15;14.43;;;;;;;7.22;100.00;97400.75;5133268;27;20062;-66
2022/04/07 03:19:05;;;;;;;19.35;14.05;;;;;;;7.23;100.00;97399.59;5133282;27;20054;-66
2022/04/07 03:21:31;;;;;;;18.45;13.82;;;;;;;7.26;100.00;97390.66;5133123;27;20053;-66
2022/04/07 03:23:57;;;;;;;21.73;15.10;;;;;;;7.27;100.00;97399.63;5133254;28;20531;-67
2022/04/07 03:26:24;;;;;;;18.40;14.05;;;;;;;7.26;100.00;97398.84;5133319;27;20051;-66
2022/04/07 03:28:50;;;;;;;19.73;13.85;;;;;;;7.28;100.00;97406.63;5133062;28;20058;-67
2022/04/07 03:31:17;;;;;;;21.50;14.30;;;;;;;7.24;100.00;97397.66;5132283;27;20055;-67
2022/04/07 03:33:44;;;;;;;19.17;13.63;;;;;;;7.26;100.00;97398.84;5133226;27;20116;-66
2022/04/07 03:36:10;;;;;;;19.67;13.18;;;;;;;7.25;100.00;97396.47;5132933;27;20047;-66
2022/04/07 03:38:38;;;;;;;20.90;14.73;;;;;;;7.32;100.00;97400.00;5133085;28;20422;-66
2022/04/07 03:41:05;;;;;;;18.20;13.20;;;;;;;7.31;100.00;97409.34;5132765;27;20150;-66
2022/04/07 03:43:32;;;;;;;25.52;14.13;;;;;;;7.43;100.00;97419.13;5132829;28;20051;-66
2022/04/07 03:45:59;;;;;;;20.77;14.13;;;;;;;7.41;100.00;97407.81;5132552;27;20058;-67
2022/04/07 03:48:25;;;;;;;19.00;13.05;;;;;;;7.40;100.00;97414.44;5133020;27;20407;-66
2022/04/07 03:50:51;;;;;;;20.92;13.63;;;;;;;7.42;100.00;97403.13;5132713;27;20047;-66
2022/04/07 03:53:17;;;;;;;20.27;13.02;;;;;;;7.45;100.00;97405.09;5132675;27;20413;-66
2022/04/07 03:55:43;;;;;;;19.48;13.73;;;;;;;7.47;100.00;97408.22;5132557;27;20510;-67
2022/04/07 03:58:09;;;;;;;19.75;14.20;;;;;;;7.45;100.00;97413.28;5132859;27;20051;-66
2022/04/07 04:00:36;;;;;;;22.10;13.18;;;;;;;7.44;100.00;97409.00;5132533;28;20051;-65
2022/04/07 04:03:02;;;;;;;18.92;14.43;;;;;;;7.43;100.00;97410.16;5132515;27;20107;-63
2022/04/07 04:05:28;;;;;;;20.38;14.07;;;;;;;7.50;100.00;97407.44;5132632;27;20047;-66
2022/04/07 04:07:56;;;;;;;18.02;13.15;;;;;;;7.44;100.00;97396.13;5132775;27;20050;-66
2022/04/07 04:10:23;;;;;;;19.92;13.63;;;;;;;7.41;100.00;97404.31;5132511;28;20047;-66
2022/04/07 04:12:50;;;;;;;24.27;13.48;;;;;;;7.43;100.00;97405.50;5132741;27;20051;-66
2022/04/07 04:15:16;;;;;;;19.92;12.73;;;;;;;7.51;100.00;97392.66;5132337;27;20061;-66
2022/04/07 04:17:43;;;;;;;16.35;13.05;;;;;;;7.56;100.00;97400.44;5132284;27;20053;-66
2022/04/07 04:20:10;;;;;;;23.27;13.80;;;;;;;7.50;100.00;97402.78;5132261;27;20084;-66
2022/04/07 04:22:36;;;;;;;25.42;13.93;;;;;;;7.55;100.00;97385.25;5132304;28;20141;-66
2022/04/07 04:25:03;;;;;;;19.63;14.23;;;;;;;7.51;100.00;97389.91;5132155;28;20092;-66
2022/04/07 04:27:29;;;;;;;18.70;14.02;;;;;;;7.51;100.00;97379.78;5132333;28;20051;-66
2022/04/07 04:29:56;;;;;;;17.95;13.25;;;;;;;7.53;100.00;97377.47;5132259;27;20054;-67
2022/04/07 04:32:22;;;;;;;16.45;12.85;;;;;;;7.52;100.00;97369.66;5132148;27;20540;-66
2022/04/07 04:34:49;;;;;;;18.23;12.10;;;;;;;7.52;100.00;97389.53;5131696;27;20391;-67
2022/04/07 04:37:15;;;;;;;16.45;12.15;;;;;;;7.52;100.00;97364.19;5132005;27;20054;-67
2022/04/07 04:39:41;;;;;;;17.98;13.20;;;;;;;7.50;100.00;97372.00;5132369;28;20050;-68
2022/04/07 04:42:08;;;;;;;20.60;12.98;;;;;;;7.49;100.00;97363.03;5130531;27;20051;-66
2022/04/07 04:44:34;;;;;;;16.90;12.23;;;;;;;7.65;100.00;97362.66;5132243;27;20058;-67
2022/04/07 04:47:01;;;;;;;18.63;12.73;;;;;;;7.71;100.00;97369.28;5131585;27;20106;-67
2022/04/07 04:49:27;;;;;;;16.48;11.73;;;;;;;7.78;100.00;97369.28;5132148;28;20055;-67
2022/04/07 04:51:54;;;;;;;17.60;10.93;;;;;;;7.91;100.00;97369.66;5131986;27;20092;-67
2022/04/07 04:54:20;;;;;;;15.95;12.02;;;;;;;7.98;100.00;97383.31;5131501;28;20057;-66
2022/04/07 04:56:46;;;;;;;17.27;10.63;;;;;;;8.08;100.00;97397.34;5131625;27;20055;-68
2022/04/07 04:59:12;;;;;;;19.17;11.13;;;;;;;8.09;100.00;97402.41;5131700;27;20058;-66
2022/04/07 05:01:38;;;;;;;15.82;12.13;;;;;;;8.21;100.00;97407.47;5131319;27;20058;-67
2022/04/07 05:04:05;;;;;;;15.88;10.88;;;;;;;8.24;100.00;97420.34;5131544;28;20115;-64
2022/04/07 05:06:31;;;;;;;14.85;10.35;;;;;;;8.25;100.00;97427.34;5131486;27;20047;-65
2022/04/07 05:08:58;;;;;;;15.20;9.95;;;;;;;8.22;100.00;97446.47;5131463;27;20054;-65
2022/04/07 05:11:24;;;;;;;17.25;10.70;;;;;;;8.19;100.00;97455.44;5135869;27;20093;-64
2022/04/07 05:13:52;;;;;;;14.68;10.35;;;;;;;8.26;100.00;97444.50;5134089;27;20115;-65
2022/04/07 05:16:18;;;;;;;15.13;10.68;;;;;;;8.34;100.00;97456.22;5132622;27;20490;-65
2022/04/07 05:18:47;;;;;;;17.80;11.63;;;;;;;8.44;100.00;97455.44;5139369;27;20059;-64
2022/04/07 05:21:13;;;;;;;13.48;9.50;;;;;;;8.41;100.00;97473.38;5139660;27;20051;-64
2022/04/07 05:23:40;;;;;;;15.05;10.60;;;;;;;8.43;100.00;97479.25;5142910;27;20051;-67
2022/04/07 05:26:07;;;;;;;16.23;10.82;;;;;;;8.45;100.00;97496.00;5138772;27;20418;-67
2022/04/07 05:28:33;;;;;;;18.05;10.70;;;;;;;8.43;100.00;97490.19;5140257;27;20043;-66
2022/04/07 05:30:59;;;;;;;16.98;10.13;;;;;;;8.43;100.00;97495.63;5134949;27;20059;-67
2022/04/07 05:33:25;;;;;;;19.65;10.45;;;;;;;8.45;100.00;97487.81;5139589;27;20062;-67
2022/04/07 05:35:52;;;;;;;13.27;9.63;;;;;;;8.66;100.00;97500.69;5132675;27;20050;-63
2022/04/07 05:38:18;;;;;;;11.93;8.93;;;;;;;8.85;100.00;97518.59;5130778;28;20137;-65
2022/04/07 05:40:44;;;;;;;20.75;12.57;;;;;;;8.95;100.00;97545.13;5130769;27;20047;-64
2022/04/07 05:43:11;;;;;;;13.23;9.00;;;;;;;8.96;100.00;97567.75;5133969;27;20043;-80
2022/04/07 05:45:39;;;;;;;13.55;9.07;;;;;;;9.12;100.00;97587.25;5141213;27;20055;-70
2022/04/07 05:48:05;;;;;;;13.18;9.93;;;;;;;9.19;100.00;97600.16;5151806;27;20050;-67
2022/04/07 05:50:32;;;;;;;10.95;8.50;;;;;;;9.26;100.00;97621.22;5151480;27;20054;-66
2022/04/07 05:52:58;;;;;;;12.10;9.50;;;;;;;9.14;100.00;97636.09;5148956;27;20050;-65
2022/04/07 05:55:24;;;;;;;12.15;8.40;;;;;;;9.36;100.00;97634.09;5128975;28;20051;-64
2022/04/07 05:57:50;;;;;;;12.45;8.43;;;;;;;9.49;100.00;97659.84;5130801;28;20421;-65
2022/04/07 06:00:18;;;;;;;11.88;8.30;;;;;;;9.66;100.00;97663.72;5130822;27;20051;-66
2022/04/07 06:02:45;;;;;;;10.05;7.95;;;;;;;9.77;100.00;97685.63;5130480;27;20414;-65
2022/04/07 06:05:16;;;;;;;11.65;8.13;;;;;;;9.85;100.00;97695.34;5133103;27;20096;-65
2022/04/07 06:07:43;;;;;;;9.95;7.60;;;;;;;9.96;100.00;97704.31;5134183;27;20050;-65
2022/04/07 06:10:09;;;;;;;10.63;7.32;;;;;;;10.07;100.00;97718.75;5139186;27;20509;-67
2022/04/07 06:12:35;;;;;;;13.90;7.32;;;;;;;9.93;100.00;97723.47;5128443;28;20051;-74
2022/04/07 06:15:02;;;;;;;14.30;8.38;;;;;;;10.16;100.00;97718.31;5130504;27;20080;-69
2022/04/07 06:17:35;;;;;;;15.77;8.93;;;;;;;10.44;100.00;97733.91;5150064;27;20058;-68
2022/04/07 06:20:02;;;;;;;13.15;8.23;;;;;;;10.60;100.00;97747.13;5144212;27;20046;-67
2022/04/07 06:22:28;;;;;;;11.02;7.75;;;;;;;10.69;100.00;97755.69;5148768;27;20055;-66
2022/04/07 06:24:54;;;;;;;15.05;8.43;;;;;;;10.99;100.00;97743.38;5145001;27;20050;-67
2022/04/07 06:27:20;;;;;;;9.85;7.15;;;;;;;10.95;100.00;97728.91;5150241;27;20043;-66
2022/04/07 06:29:46;;;;;;;9.20;6.80;;;;;;;10.79;100.00;97732.91;5151017;27;20053;-63
2022/04/07 06:32:12;;;;;;;16.55;8.77;;;;;;;10.82;100.00;97742.28;5143161;27;20047;-63
2022/04/07 06:34:39;;;;;;;11.63;8.15;;;;;;;10.95;100.00;97732.44;5130493;27;20058;-64
2022/04/07 06:37:05;;;;;;;15.75;8.88;;;;;;;11.16;100.00;97733.44;5143292;27;20445;-62
2022/04/07 06:39:32;;;;;;;11.55;7.80;;;;;;;11.34;100.00;97717.66;5144950;27;20055;-63
2022/04/07 06:41:58;;;;;;;17.40;9.25;;;;;;;11.66;100.00;97695.41;5132567;27;20051;-61
2022/04/07 06:44:24;;;;;;;9.38;7.05;;;;;;;11.71;100.00;97645.53;5150802;27;20053;-73
2022/04/07 06:46:50;;;;;;;13.23;6.78;;;;;;;11.53;100.00;97626.50;5150282;27;20053;-64
2022/04/07 06:49:17;;;;;;;11.35;7.15;;;;;;;11.72;100.00;97633.34;5150777;27;20042;-66
2022/04/07 06:51:43;;;;;;;15.88;7.78;;;;;;;11.75;100.00;97618.81;5150456;27;20062;-66
2022/04/07 06:54:10;;;;;;;54.13;10.95;;;;;;;12.50;100.00;97547.59;5145638;27;20051;-65
2022/04/07 06:56:36;;;;;;;17.88;7.60;;;;;;;12.43;100.00;97411.84;5129948;28;20092;-66
2022/04/07 06:59:02;;;;;;;14.50;7.30;;;;;;;12.06;100.00;97417.56;5129739;28;20100;-66
2022/04/07 07:01:28;;;;;;;28.02;7.28;;;;;;;12.02;100.00;97478.03;5129876;27;20501;-65
2022/04/07 07:03:54;;;;;;;11.80;7.68;;;;;;;12.21;100.00;97493.06;5129522;27;20043;-65
2022/04/07 07:06:20;;;;;;;13.75;7.57;;;;;;;11.66;100.00;97500.50;5133580;27;20046;-65
2022/04/07 07:08:47;;;;;;;12.25;7.35;;;;;;;11.64;100.00;97578.97;5141890;27;20055;-65
2022/04/07 07:11:14;;;;;;;12.50;7.50;;;;;;;11.71;100.00;97598.84;5142295;27;20414;-64
2022/04/07 07:13:40;;;;;;;10.85;7.45;;;;;;;11.92;100.00;97603.34;5141787;27;20062;-65
2022/04/07 07:16:06;;;;;;;17.33;7.82;;;;;;;12.07;100.00;97581.19;5135916;27;20059;-65
2022/04/07 07:18:32;;;;;;;10.65;6.47;;;;;;;12.20;100.00;97541.75;5146979;27;20068;-65
2022/04/07 07:20:59;;;;;;;12.48;7.05;;;;;;;12.72;100.00;97513.81;5135516;27;20051;-65
2022/04/07 07:23:25;;;;;;;16.20;7.80;;;;;;;12.87;100.00;97420.09;5133129;28;20047;-66
2022/04/07 07:25:53;;;;;;;11.50;7.10;;;;;;;12.87;100.00;97357.59;5133069;28;20043;-65
2022/04/07 07:28:19;;;;;;;12.77;7.05;;;;;;;12.86;100.00;97333.25;5138952;27;20062;-65
2022/04/07 07:30:45;;;;;;;13.18;7.28;;;;;;;12.72;100.00;97337.84;5140247;27;20051;-66
2022/04/07 07:33:11;;;;;;;29.73;14.00;;;;;;;13.12;100.00;97370.06;5139035;27;20070;-65
2022/04/07 07:35:37;;;;;;;14.77;7.30;;;;;;;13.17;100.00;97304.31;5134606;27;20051;-65
2022/04/07 07:38:04;;;;;;;15.90;9.43;;;;;;;12.92;100.00;97240.81;5132562;27;20053;-65
2022/04/07 07:40:32;;;;;;;23.50;10.70;;;;;;;13.06;100.00;97273.50;5151495;27;20082;-65
2022/04/07 07:43:00;;;;;;;17.63;9.85;;;;;;;13.33;100.00;97284.31;5145165;27;20474;-65
2022/04/07 07:45:28;;;;;;;21.77;10.52;;;;;;;14.36;100.00;97172.63;5132687;28;20490;-65
2022/04/07 07:47:54;;;;;;;27.77;11.40;;;;;;;14.72;100.00;96957.25;5141064;27;20042;-64
2022/04/07 07:50:21;;;;;;;20.33;9.20;;;;;;;14.49;100.00;96872.91;5153038;27;20100;-65
2022/04/07 07:52:47;;;;;;;20.55;10.93;;;;;;;14.50;100.00;96843.38;5151314;27;20050;-64
2022/04/07 07:55:14;;;;;;;25.85;11.63;;;;;;;14.13;100.00;96846.59;5152451;27;20377;-65
2022/04/07 07:57:40;;;;;;;18.40;10.27;;;;;;;14.08;100.00;96858.16;5153303;27;20053;-65
2022/04/07 08:00:09;;;;;;;14.65;8.82;;;;;;;13.89;100.00;96829.66;5153052;27;20140;-65
2022/04/07 08:02:36;;;;;;;17.05;9.60;;;;;;;14.29;100.00;96828.34;5153158;27;20055;-65
2022/04/07 08:05:04;;;;;;;20.40;9.25;;;;;;;15.48;100.00;96817.31;5153220;27;20055;-65
2022/04/07 08:07:30;;;;;;;13.48;9.20;;;;;;;16.08;100.00;96515.63;5153190;27;20058;-66
2022/04/07 08:09:57;;;;;;;19.40;8.65;;;;;;;16.18;100.00;96427.91;5132915;27;20043;-65
2022/04/07 08:12:23;;;;;;;11.52;7.43;;;;;;;15.49;100.00;96380.63;5132171;28;20051;-65
2022/04/07 08:14:49;;;;;;;14.40;8.55;;;;;;;16.18;100.00;96427.91;5132143;27;20552;-65
2022/04/07 08:17:16;;;;;;;19.13;9.63;;;;;;;17.30;100.00;96363.75;5132036;27;20052;-65
2022/04/07 08:19:43;;;;;;;11.77;7.07;;;;;;;17.87;100.00;96283.03;5135967;27;20130;-65
2022/04/07 08:22:09;;;;;;;15.75;10.93;;;;;;;18.01;100.00;96269.63;5147766;27;20055;-66
2022/04/07 08:24:35;;;;;;;26.17;12.40;;;;;;;17.64;100.00;96268.09;5153062;27;20095;-65
2022/04/07 08:27:01;;;;;;;15.23;9.68;;;;;;;16.69;100.00;96277.63;5134010;27;20498;-66
2022/04/07 08:29:28;;;;;;;11.55;7.90;;;;;;;16.15;100.00;96315.53;5132135;27;20402;-66
2022/04/07 08:31:54;;;;;;;11.70;9.27;;;;;;;15.57;100.00;96369.25;5132046;27;20055;-66
2022/04/07 08:34:21;;;;;;;8.13;6.32;;;;;;;14.94;100.00;96424.84;5131533;28;20043;-65
2022/04/07 08:36:48;;;;;;;10.60;6.70;;;;;;;14.59;100.00;96526.38;5131860;27;20447;-66
2022/04/07 08:39:14;;;;;;;14.15;6.80;;;;;;;14.26;100.00;96619.78;5134131;27;20057;-65
2022/04/07 08:41:42;;;;;;;11.35;6.93;;;;;;;13.94;100.00;96701.63;5140675;27;20047;-65
2022/04/07 08:44:08;;;;;;;18.30;10.70;;;;;;;13.81;100.00;96789.78;5134292;27;20103;-64
2022/04/07 08:46:35;;;;;;;13.10;7.38;;;;;;;13.56;100.00;96875.97;5136879;27;20076;-65
2022/04/07 08:49:03;;;;;;;15.93;6.93;;;;;;;13.34;100.00;96943.84;5140732;27;20047;-64
2022/04/07 08:51:31;;;;;;;15.45;8.70;;;;;;;13.32;100.00;96971.78;5139887;27;20512;-65
2022/04/07 08:53:58;;;;;;;13.38;8.13;;;;;;;13.29;100.00;97040.69;5139487;27;20427;-65
2022/04/07 08:56:24;;;;;;;11.15;6.22;;;;;;;13.32;100.00;97039.81;5150785;27;20073;-65
2022/04/07 08:58:53;;;;;;;10.07;6.63;;;;;;;13.42;100.00;97033.25;5132979;27;20138;-63
2022/04/07 09:01:19;;;;;;;7.53;5.82;;;;;;;13.68;100.00;97003.03;5131338;28;20051;-63
2022/04/07 09:03:45;;;;;;;13.82;6.88;;;;;;;14.13;100.00;97025.69;5131188;27;20545;-66
2022/04/07 09:06:15;;;;;;;15.93;6.28;;;;;;;14.19;100.00;96907.38;5131408;27;20123;-65
2022/04/07 09:08:42;;;;;;;9.68;6.20;;;;;;;14.15;100.00;96856.38;5131239;27;20571;-64
2022/04/07 09:11:10;;;;;;;10.80;7.20;;;;;;;14.13;100.00;96857.59;5131560;27;20422;-67
2022/04/07 09:13:39;;;;;;;8.50;6.43;;;;;;;14.76;100.00;96788.88;5131539;27;20537;-64
2022/04/07 09:16:07;;;;;;;12.73;6.82;;;;;;;15.36;100.00;96636.75;5131436;27;20082;-65
2022/04/07 09:18:35;;;;;;;8.88;6.93;;;;;;;15.23;100.00;96580.94;5131155;28;20047;-64
2022/04/07 09:21:01;;;;;;;11.15;8.85;;;;;;;14.69;100.00;96662.28;5130955;28;20104;-63
2022/04/07 09:23:29;;;;;;;11.13;6.90;;;;;;;14.42;100.00;96737.31;5143787;27;20564;-64
2022/04/07 09:25:56;;;;;;;8.15;5.82;;;;;;;14.13;100.00;96830.06;5151614;27;20493;-64
2022/04/07 09:28:26;;;;;;;12.82;6.70;;;;;;;13.57;100.00;96937.28;5130503;27;20183;-65
2022/04/07 09:30:52;;;;;;;9.82;8.52;;;;;;;13.12;100.00;97078.44;5131316;28;20057;-64
2022/04/07 09:33:22;;;;;;;10.00;6.65;;;;;;;12.91;100.00;97187.00;5131452;27;20050;-64
2022/04/07 09:36:02;;;;;;;9.52;6.28;;;;;;;12.64;100.00;97310.94;5131152;28;20051;-64
2022/04/07 09:38:31;;;;;;;10.82;6.25;;;;;;;12.05;100.00;97449.75;5131827;27;20062;-67
2022/04/07 09:41:06;;;;;;;10.88;6.50;;;;;;;11.95;100.00;97525.63;5137386;27;20076;-66
2022/04/07 09:43:42;;;;;;;11.70;7.20;;;;;;;11.86;100.00;97601.44;5130823;27;20092;-63
2022/04/07 09:46:09;;;;;;;20.55;8.38;;;;;;;11.85;100.00;97654.81;5130552;27;20414;-66
2022/04/07 09:48:36;;;;;;;12.70;7.30;;;;;;;11.76;100.00;97671.75;5129040;27;20483;-67
2022/04/07 09:51:05;;;;;;;19.80;9.18;;;;;;;11.54;100.00;97676.69;5130842;27;20043;-64
2022/04/07 09:53:36;;;;;;;19.90;9.52;;;;;;;11.69;100.00;97683.56;5133342;27;20490;-65
2022/04/07 09:56:04;;;;;;;17.17;10.75;;;;;;;11.63;100.00;97668.75;5151284;27;20447;-65
2022/04/07 09:58:33;;;;;;;19.30;12.38;;;;;;;11.71;100.00;97663.97;5151963;27;20054;-68
2022/04/07 10:01:01;;;;;;;20.05;12.23;;;;;;;11.56;100.00;97660.59;5151687;27;20047;-65
2022/04/07 10:03:29;;;;;;;18.67;11.18;;;;;;;11.45;100.00;97654.44;5135649;27;20558;-65
2022/04/07 10:05:56;;;;;;;14.23;9.18;;;;;;;11.54;100.00;97638.28;5139245;27;20042;-65
2022/04/07 10:08:23;;;;;;;15.32;9.57;;;;;;;11.73;100.00;97643.16;5151439;27;20425;-64
2022/04/07 10:10:50;;;;;;;16.20;9.20;;;;;;;11.76;100.00;97647.84;5148749;27;20047;-68
2022/04/07 10:13:17;;;;;;;13.52;8.48;;;;;;;11.99;100.00;97638.16;5151686;27;20054;-65
2022/04/07 10:15:43;;;;;;;12.07;7.13;;;;;;;12.16;100.00;97634.44;5149415;27;20059;-62
2022/04/07 10:18:19;;;;;;;12.27;7.18;;;;;;;12.25;100.00;97633.91;5144410;27;20078;-63
2022/04/07 10:20:49;;;;;;;8.93;6.90;;;;;;;12.55;100.00;97626.81;5150833;27;20051;-66
2022/04/07 10:23:27;;;;;;;10.95;6.68;;;;;;;12.76;100.00;97606.47;5151388;27;20057;-62
2022/04/07 10:25:57;;;;;;;9.38;7.00;;;;;;;12.75;100.00;97571.94;5151095;27;20054;-64
2022/04/07 10:28:25;;;;;;;9.90;7.55;;;;;;;12.89;100.00;97550.44;5146542;27;20078;-64
2022/04/07 10:30:53;;;;;;;8.75;6.45;;;;;;;13.34;100.00;97524.53;5132947;27;20089;-67
2022/04/07 10:33:32;;;;;;;9.35;6.18;;;;;;;13.75;100.00;97411.16;5134140;27;20047;-68
2022/04/07 10:35:59;;;;;;;9.45;6.30;;;;;;;13.85;100.00;97304.69;5130524;27;20047;-66
2022/04/07 10:38:36;;;;;;;9.48;6.13;;;;;;;13.85;100.00;97159.50;5134814;27;20405;-65
2022/04/07 10:41:03;;;;;;;10.48;7.35;;;;;;;13.18;100.00;97283.84;5144481;27;20073;-64
2022/04/07 10:43:31;;;;;;;12.68;7.82;;;;;;;13.38;100.00;97368.34;5134781;27;20043;-64
2022/04/07 10:46:11;;;;;;;10.25;7.47;;;;;;;13.54;100.00;97291.28;5149757;27;20119;-64
2022/04/07 10:48:43;;;;;;;10.57;7.38;;;;;;;13.10;100.00;97320.97;5144045;27;20085;-64
2022/04/07 10:51:11;;;;;;;9.80;7.32;;;;;;;13.50;100.00;97381.44;5151786;27;20102;-65
2022/04/07 10:53:38;;;;;;;10.23;7.35;;;;;;;13.91;100.00;97291.19;5135784;27;20047;-64
2022/04/07 10:56:07;;;;;;;12.55;7.28;;;;;;;14.38;100.00;97197.00;5133476;28;20077;-64
2022/04/07 10:58:45;;;;;;;11.20;7.75;;;;;;;14.45;100.00;97072.75;5136679;27;20055;-65
2022/04/07 11:01:36;;;;;;;11.13;7.72;;;;;;;14.47;100.00;97059.31;5147518;27;20468;-64
2022/04/07 11:04:28;;;;;;;11.45;7.30;;;;;;;15.11;100.00;96948.84;5141457;27;20047;-65
2022/04/07 11:07:13;;;;;;;17.77;7.90;;;;;;;14.98;100.00;96872.41;5133295;28;20459;-63
2022/04/07 11:09:48;;;;;;;11.82;8.07;;;;;;;14.48;100.00;96934.03;5131100;28;20054;-65
2022/04/07 11:12:20;;;;;;;23.52;9.57;;;;;;;14.31;100.00;97098.75;5132249;28;20079;-64
2022/04/07 11:14:48;;;;;;;10.38;8.18;;;;;;;14.24;100.00;97099.75;5133098;27;20541;-70
2022/04/07 11:17:22;;;;;;;10.27;7.10;;;;;;;14.16;100.00;97120.47;5133577;27;20047;-65